createdAt,value
2019-05-14T00:01:47.258Z,70.06
2019-05-14T00:04:15.653Z,70.37
2019-05-14T00:06:44.046Z,70.98
2019-05-14T00:09:12.466Z,70.42
2019-05-14T00:11:42.119Z,70.28
2019-05-14T00:14:11.656Z,70.41
2019-05-14T00:16:42.484Z,71.38
2019-05-14T00:19:11.273Z,70.38
2019-05-14T00:21:42.099Z,69.16
2019-05-14T00:24:11.344Z,69.36
2019-05-14T00:26:42.363Z,70.07
2019-05-14T00:29:11.386Z,70.59
2019-05-14T00:31:42.217Z,71.28
2019-05-14T00:34:11.156Z,70.80
2019-05-14T00:36:41.723Z,71.04
2019-05-14T00:39:11.180Z,71.00
2019-05-14T00:41:41.778Z,71.22
2019-05-14T00:44:09.853Z,71.97
2019-05-14T00:46:38.263Z,70.62
2019-05-14T00:49:06.927Z,71.38
2019-05-14T00:51:35.394Z,72.28
2019-05-14T00:54:03.974Z,71.75
2019-05-14T00:56:32.373Z,71.34
2019-05-14T00:59:01.432Z,71.41
2019-05-14T01:01:31.827Z,70.98
2019-05-14T01:04:01.274Z,70.80
2019-05-14T01:06:31.492Z,69.99
2019-05-14T01:09:01.413Z,71.04
2019-05-14T01:11:31.471Z,71.89
2019-05-14T01:14:01.676Z,72.31
2019-05-14T01:16:31.739Z,72.10
2019-05-14T01:19:01.997Z,71.57
2019-05-14T01:21:31.187Z,71.60
2019-05-14T01:24:01.982Z,71.73
2019-05-14T01:26:31.093Z,71.97
2019-05-14T01:29:01.465Z,71.57
2019-05-14T01:31:31.480Z,72.28
2019-05-14T01:34:02.007Z,72.20
2019-05-14T01:36:32.107Z,71.54
2019-05-14T01:39:01.834Z,71.86
2019-05-14T01:41:31.749Z,72.87
2019-05-14T01:44:01.780Z,73.09
2019-05-14T01:46:31.658Z,73.61
2019-05-14T01:49:01.523Z,72.92
2019-05-14T01:51:31.592Z,72.70
2019-05-14T01:54:01.506Z,71.91
2019-05-14T01:56:31.908Z,72.23
2019-05-14T01:59:01.752Z,72.78
2019-05-14T02:01:31.527Z,72.67
2019-05-14T02:04:02.155Z,72.38
2019-05-14T02:06:31.787Z,72.59
2019-05-14T02:09:02.022Z,72.35
2019-05-14T02:11:32.087Z,72.27
2019-05-14T02:14:02.433Z,72.70
2019-05-14T02:16:31.524Z,73.23
2019-05-14T02:19:01.362Z,73.23
2019-05-14T02:21:31.734Z,73.20
2019-05-14T02:24:02.047Z,72.35
2019-05-14T02:26:31.532Z,72.34
2019-05-14T02:29:02.041Z,73.77
2019-05-14T02:31:30.540Z,74.41
2019-05-14T02:33:59.176Z,74.37
2019-05-14T02:36:30.757Z,73.60
2019-05-14T02:39:00.474Z,74.83
2019-05-14T02:41:29.891Z,75.48
2019-05-14T02:43:59.364Z,74.39
2019-05-14T02:46:29.631Z,73.34
2019-05-14T02:48:59.519Z,73.99
2019-05-14T02:51:30.101Z,73.73
2019-05-14T02:53:59.228Z,73.12
2019-05-14T02:56:29.566Z,72.83
2019-05-14T02:59:00.440Z,73.32
2019-05-14T03:01:30.139Z,73.42
2019-05-14T03:03:59.786Z,74.58
2019-05-14T03:06:29.150Z,73.99
2019-05-14T03:09:00.002Z,75.19
2019-05-14T03:11:29.668Z,74.57
2019-05-14T03:13:59.891Z,74.75
2019-05-14T03:16:32.531Z,75.07
2019-05-14T03:18:59.497Z,75.10
2019-05-14T03:21:30.452Z,74.73
2019-05-14T03:24:00.731Z,74.56
2019-05-14T03:26:29.672Z,74.96
2019-05-14T03:29:00.105Z,74.99
2019-05-14T03:31:32.962Z,74.79
2019-05-14T03:34:02.788Z,74.60
2019-05-14T03:36:33.993Z,74.37
2019-05-14T03:38:59.399Z,75.54
2019-05-14T03:41:30.551Z,76.23
2019-05-14T03:44:00.102Z,74.72
2019-05-14T03:46:43.928Z,74.90
2019-05-14T03:49:00.138Z,75.63
2019-05-14T03:51:29.820Z,76.20
2019-05-14T03:54:05.834Z,77.44
2019-05-14T03:56:29.816Z,77.68
2019-05-14T03:58:59.985Z,77.94
2019-05-14T04:01:29.746Z,77.50
2019-05-14T04:03:59.448Z,76.58
2019-05-14T04:06:30.366Z,76.17
2019-05-14T04:09:00.872Z,76.04
2019-05-14T04:11:31.299Z,76.21
2019-05-14T04:14:03.389Z,76.34
2019-05-14T04:16:34.383Z,76.86
2019-05-14T04:19:04.736Z,77.54
2019-05-14T04:21:34.057Z,77.80
2019-05-14T04:24:04.619Z,77.96
2019-05-14T04:26:53.235Z,78.01
2019-05-14T04:29:10.179Z,77.98
2019-05-14T04:31:39.936Z,78.01
2019-05-14T04:34:10.743Z,77.95
2019-05-14T04:36:39.328Z,78.04
2019-05-14T04:39:09.540Z,77.27
2019-05-14T04:41:39.308Z,76.54
2019-05-14T04:44:09.784Z,76.76
2019-05-14T04:46:39.472Z,77.66
2019-05-14T04:49:09.698Z,77.53
2019-05-14T04:51:39.734Z,80.42
2019-05-14T04:54:09.732Z,81.47
2019-05-14T04:56:39.998Z,81.64
2019-05-14T04:59:10.387Z,81.51
2019-05-14T05:01:40.305Z,79.79
2019-05-14T05:04:09.684Z,77.55
2019-05-14T05:06:39.714Z,77.53
2019-05-14T05:09:09.577Z,76.45
2019-05-14T05:11:39.439Z,75.86
2019-05-14T05:14:08.954Z,74.59
2019-05-14T05:16:39.053Z,73.03
2019-05-14T05:19:10.470Z,71.94
2019-05-14T05:21:38.767Z,72.75
2019-05-14T05:24:09.188Z,71.23
2019-05-14T05:26:39.260Z,70.09
2019-05-14T05:29:10.374Z,71.11
2019-05-14T05:31:38.290Z,69.25
2019-05-14T05:34:08.983Z,67.19
2019-05-14T05:36:38.016Z,63.99
2019-05-14T05:39:08.585Z,65.70
2019-05-14T05:41:38.460Z,63.78
2019-05-14T05:44:08.154Z,64.65
2019-05-14T05:46:38.790Z,62.84
2019-05-14T05:49:08.042Z,61.13
2019-05-14T05:51:39.045Z,62.47
2019-05-14T05:54:09.061Z,59.86
2019-05-14T05:56:38.813Z,59.96
2019-05-14T05:59:09.579Z,59.76
2019-05-14T06:01:42.986Z,57.96
2019-05-14T06:04:08.665Z,58.83
2019-05-14T06:06:39.066Z,58.26
2019-05-14T06:09:08.925Z,59.35
2019-05-14T06:11:38.269Z,57.17
2019-05-14T06:14:08.303Z,56.08
2019-05-14T06:16:38.502Z,55.92
2019-05-14T06:19:08.276Z,55.44
2019-05-14T06:21:39.519Z,53.73
2019-05-14T06:24:09.079Z,48.46
2019-05-14T06:26:38.434Z,50.67
2019-05-14T06:29:08.398Z,45.87
2019-05-14T06:31:38.685Z,49.44
2019-05-14T06:34:09.519Z,43.64
2019-05-14T06:36:39.579Z,45.93
2019-05-14T06:39:09.233Z,48.64
2019-05-14T06:41:42.658Z,44.70
2019-05-14T06:44:09.181Z,46.54
2019-05-14T06:46:39.150Z,46.40
2019-05-14T06:49:09.057Z,45.21
2019-05-14T06:51:39.597Z,45.09
2019-05-14T06:54:09.222Z,45.02
2019-05-14T06:56:38.546Z,42.78
2019-05-14T06:59:09.041Z,46.10
2019-05-14T07:01:38.499Z,44.48
2019-05-14T07:04:08.806Z,42.61
2019-05-14T07:06:39.067Z,43.22
2019-05-14T07:09:08.599Z,43.24
2019-05-14T07:11:38.858Z,43.33
2019-05-14T07:14:11.201Z,43.68
2019-05-14T07:16:39.036Z,45.12
2019-05-14T07:19:09.449Z,41.35
2019-05-14T07:21:38.338Z,42.47
2019-05-14T07:24:08.730Z,41.60
2019-05-14T07:26:38.820Z,41.62
2019-05-14T07:29:11.221Z,41.23
2019-05-14T07:31:38.440Z,39.66
2019-05-14T07:34:08.925Z,38.49
2019-05-14T07:36:38.661Z,37.46
2019-05-14T07:39:09.423Z,36.41
2019-05-14T07:41:39.021Z,36.61
2019-05-14T07:44:09.234Z,37.71
2019-05-14T07:46:38.963Z,38.25
2019-05-14T07:49:10.991Z,34.31
2019-05-14T07:51:38.819Z,34.08
2019-05-14T07:54:08.367Z,34.57
2019-05-14T07:56:38.498Z,33.28
2019-05-14T07:59:08.878Z,33.90
2019-05-14T08:01:38.829Z,36.63
2019-05-14T08:04:11.078Z,32.85
2019-05-14T08:06:39.427Z,33.48
2019-05-14T08:09:09.553Z,34.17
2019-05-14T08:11:38.783Z,33.42
2019-05-14T08:14:09.070Z,34.47
2019-05-14T08:16:38.119Z,31.49
2019-05-14T08:19:22.523Z,34.10
2019-05-14T08:21:38.765Z,32.49
2019-05-14T08:24:08.882Z,30.89
2019-05-14T08:26:38.235Z,32.04
2019-05-14T08:29:08.676Z,30.63
2019-05-14T08:31:38.392Z,29.71
2019-05-14T08:34:09.228Z,30.92
2019-05-14T08:36:38.000Z,31.34
2019-05-14T08:39:08.797Z,32.23
2019-05-14T08:41:38.380Z,31.46
2019-05-14T08:44:08.495Z,30.51
2019-05-14T08:46:38.901Z,34.71
2019-05-14T08:49:08.935Z,34.03
2019-05-14T08:51:38.886Z,37.31
2019-05-14T08:54:08.244Z,31.56
2019-05-14T08:56:38.928Z,31.01
2019-05-14T08:59:08.659Z,31.89
2019-05-14T09:01:38.699Z,33.99
2019-05-14T09:04:09.045Z,32.80
2019-05-14T09:06:38.491Z,30.95
2019-05-14T09:09:09.490Z,33.65
2019-05-14T09:11:44.580Z,29.40
2019-05-14T09:14:10.913Z,27.26
2019-05-14T09:16:46.541Z,27.41
2019-05-14T09:19:08.791Z,29.35
2019-05-14T09:21:39.862Z,31.01
2019-05-14T09:24:09.540Z,29.21
2019-05-14T09:26:39.090Z,30.04
2019-05-14T09:29:19.398Z,29.66
2019-05-14T09:31:39.088Z,30.37
2019-05-14T09:34:09.179Z,28.34
2019-05-14T09:36:39.500Z,28.79
2019-05-14T09:39:11.815Z,27.41
2019-05-14T09:41:38.853Z,27.70
2019-05-14T09:44:09.333Z,30.02
2019-05-14T09:46:38.486Z,28.33
2019-05-14T09:49:08.071Z,28.36
2019-05-14T09:51:38.462Z,29.44
2019-05-14T09:54:08.540Z,31.61
2019-05-14T09:56:39.319Z,33.34
2019-05-14T09:59:09.031Z,31.24
2019-05-14T10:01:38.341Z,33.25
2019-05-14T10:04:09.024Z,32.90
2019-05-14T10:06:39.230Z,32.63
2019-05-14T10:09:08.562Z,31.43
2019-05-14T10:11:38.371Z,30.52
2019-05-14T10:14:07.954Z,28.75
2019-05-14T10:16:38.564Z,32.16
2019-05-14T10:19:06.695Z,31.87
2019-05-14T10:21:35.090Z,29.07
2019-05-14T10:24:03.472Z,30.98
2019-05-14T10:26:31.889Z,30.44
2019-05-14T10:29:00.289Z,29.70
2019-05-14T10:31:29.142Z,30.88
2019-05-14T10:33:58.889Z,28.11
2019-05-14T10:36:29.803Z,27.46
2019-05-14T10:38:58.776Z,27.50
2019-05-14T10:41:29.136Z,29.44
2019-05-14T10:43:58.858Z,29.46
2019-05-14T10:46:29.236Z,28.32
2019-05-14T10:48:58.677Z,31.51
2019-05-14T10:51:28.486Z,30.87
2019-05-14T10:53:59.421Z,29.45
2019-05-14T10:56:29.538Z,29.67
2019-05-14T10:58:58.404Z,28.51
2019-05-14T11:01:28.493Z,29.93
2019-05-14T11:03:56.990Z,30.54
2019-05-14T11:06:25.371Z,28.95
2019-05-14T11:08:53.775Z,27.97
2019-05-14T11:11:22.198Z,30.23
2019-05-14T11:13:50.616Z,30.97
2019-05-14T11:16:19.266Z,33.21
2019-05-14T11:18:49.666Z,32.06
2019-05-14T11:21:25.609Z,28.89
2019-05-14T11:23:49.047Z,28.32
2019-05-14T11:26:18.643Z,28.63
2019-05-14T11:28:49.166Z,25.75
2019-05-14T11:31:19.049Z,30.29
2019-05-14T11:33:49.681Z,29.72
2019-05-14T11:36:18.779Z,31.70
2019-05-14T11:38:50.286Z,29.70
2019-05-14T11:41:18.588Z,29.36
2019-05-14T11:43:49.341Z,29.90
2019-05-14T11:46:26.203Z,30.04
2019-05-14T11:48:49.032Z,30.42
2019-05-14T11:51:19.256Z,29.47
2019-05-14T11:53:49.513Z,30.69
2019-05-14T11:56:19.395Z,31.36
2019-05-14T11:58:48.093Z,32.33
2019-05-14T12:01:18.830Z,30.52
2019-05-14T12:03:49.946Z,33.45
2019-05-14T12:06:18.592Z,30.92
2019-05-14T12:08:47.160Z,30.49
2019-05-14T12:11:18.522Z,33.44
2019-05-14T12:13:48.423Z,33.54
2019-05-14T12:16:15.831Z,34.21
2019-05-14T12:18:44.301Z,32.20
2019-05-14T12:21:12.816Z,31.59
2019-05-14T12:23:41.210Z,34.89
2019-05-14T12:26:09.837Z,32.59
2019-05-14T12:28:38.791Z,31.06
2019-05-14T12:31:09.335Z,36.15
2019-05-14T12:33:39.639Z,33.33
2019-05-14T12:36:10.122Z,32.49
2019-05-14T12:38:38.370Z,33.17
2019-05-14T12:41:09.184Z,32.98
2019-05-14T12:43:39.606Z,33.19
2019-05-14T12:46:10.070Z,37.20
2019-05-14T12:48:38.923Z,34.10
2019-05-14T12:51:08.953Z,34.50
2019-05-14T12:53:39.408Z,33.13
2019-05-14T12:56:08.669Z,33.05
2019-05-14T12:58:42.888Z,34.54
2019-05-14T13:01:08.903Z,36.04
2019-05-14T13:03:37.878Z,33.13
2019-05-14T13:06:09.644Z,35.21
2019-05-14T13:08:38.762Z,36.53
2019-05-14T13:11:09.318Z,34.48
2019-05-14T13:13:42.309Z,37.78
2019-05-14T13:16:07.268Z,35.02
2019-05-14T13:18:38.581Z,36.11
2019-05-14T13:21:06.080Z,33.88
2019-05-14T13:23:34.552Z,32.99
2019-05-14T13:26:03.350Z,36.18
2019-05-14T13:28:31.747Z,34.97
2019-05-14T13:31:00.148Z,33.12
2019-05-14T13:33:28.766Z,36.12
2019-05-14T13:35:59.420Z,31.71
2019-05-14T13:38:27.590Z,37.24
2019-05-14T13:40:56.066Z,32.15
2019-05-14T13:43:24.470Z,35.46
2019-05-14T13:45:52.884Z,33.62
2019-05-14T13:48:21.281Z,34.18
2019-05-14T13:50:49.675Z,33.39
2019-05-14T13:53:18.857Z,31.42
2019-05-14T13:55:55.769Z,32.05
2019-05-14T13:58:20.787Z,31.97
2019-05-14T14:00:51.598Z,35.70
2019-05-14T14:03:19.962Z,32.88
2019-05-14T14:05:49.749Z,33.08
2019-05-14T14:08:19.340Z,36.51
2019-05-14T14:10:53.026Z,31.89
2019-05-14T14:13:19.799Z,33.14
2019-05-14T14:15:48.967Z,33.67
2019-05-14T14:18:20.920Z,35.50
2019-05-14T14:20:48.874Z,33.50
2019-05-14T14:23:23.109Z,32.71
2019-05-14T14:25:53.746Z,32.35
2019-05-14T14:28:17.721Z,34.56
2019-05-14T14:30:48.978Z,32.57
2019-05-14T14:33:18.573Z,32.04
2019-05-14T14:35:48.557Z,33.53
2019-05-14T14:38:16.582Z,35.42
2019-05-14T14:40:44.993Z,33.23
2019-05-14T14:43:13.384Z,32.84
2019-05-14T14:45:46.015Z,33.21
2019-05-14T14:48:13.011Z,32.87
2019-05-14T14:50:41.567Z,32.91
2019-05-14T14:53:09.925Z,34.08
2019-05-14T14:55:39.916Z,33.74
2019-05-14T14:58:11.420Z,34.81
2019-05-14T15:00:39.205Z,30.37
2019-05-14T15:03:10.105Z,31.31
2019-05-14T15:05:39.026Z,31.33
2019-05-14T15:08:10.255Z,31.91
2019-05-14T15:10:39.548Z,32.31
2019-05-14T15:13:09.313Z,31.42
2019-05-14T15:15:39.395Z,32.77
2019-05-14T15:18:10.107Z,31.41
2019-05-14T15:20:38.015Z,31.01
2019-05-14T15:23:09.852Z,32.08
2019-05-14T15:25:36.677Z,32.60
2019-05-14T15:28:05.041Z,32.57
2019-05-14T15:30:33.547Z,32.80
2019-05-14T15:33:01.940Z,36.27
2019-05-14T15:35:30.332Z,34.48
2019-05-14T15:37:59.054Z,34.16
2019-05-14T15:40:28.890Z,32.10
2019-05-14T15:42:58.999Z,33.79
2019-05-14T15:45:28.754Z,33.12
2019-05-14T15:48:02.962Z,34.94
2019-05-14T15:50:29.238Z,35.72
2019-05-14T15:52:57.705Z,33.90
2019-05-14T15:55:26.101Z,36.68
2019-05-14T15:57:54.506Z,38.15
2019-05-14T16:00:23.063Z,35.70
2019-05-14T16:02:51.483Z,36.87
2019-05-14T16:05:19.880Z,35.21
2019-05-14T16:07:49.415Z,34.59
2019-05-14T16:10:21.724Z,35.19
2019-05-14T16:12:49.558Z,35.10
2019-05-14T16:15:18.854Z,34.81
2019-05-14T16:18:03.360Z,33.34
2019-05-14T16:20:18.867Z,34.91
2019-05-14T16:22:47.557Z,36.16
2019-05-14T16:25:16.137Z,35.82
2019-05-14T16:27:44.528Z,34.25
2019-05-14T16:30:13.358Z,35.09
2019-05-14T16:32:41.756Z,36.63
2019-05-14T16:35:10.287Z,34.26
2019-05-14T16:37:39.373Z,34.26
2019-05-14T16:40:08.220Z,36.46
2019-05-14T16:42:39.235Z,35.79
2019-05-14T16:45:08.735Z,33.64
2019-05-14T16:47:39.772Z,35.77
2019-05-14T16:50:09.445Z,36.07
2019-05-14T16:52:42.313Z,35.77
2019-05-14T16:55:22.520Z,34.66
2019-05-14T16:57:38.891Z,36.05
2019-05-14T17:00:09.706Z,35.01
2019-05-14T17:02:38.373Z,34.68
2019-05-14T17:05:09.134Z,34.83
2019-05-14T17:07:38.605Z,34.34
2019-05-14T17:10:08.332Z,34.51
2019-05-14T17:12:49.767Z,35.32
2019-05-14T17:15:09.536Z,35.25
2019-05-14T17:17:38.038Z,35.77
2019-05-14T17:20:08.461Z,34.15
2019-05-14T17:22:39.919Z,34.52
2019-05-14T17:25:09.405Z,35.70
2019-05-14T17:27:39.536Z,35.22
2019-05-14T17:30:08.842Z,34.94
2019-05-14T17:32:39.107Z,36.07
2019-05-14T17:35:08.853Z,35.52
2019-05-14T17:37:39.476Z,34.35
2019-05-14T17:40:09.437Z,36.55
2019-05-14T17:42:39.325Z,35.67
2019-05-14T17:45:09.118Z,35.98
2019-05-14T17:47:38.789Z,36.61
2019-05-14T17:50:08.627Z,35.12
2019-05-14T17:52:42.950Z,36.17
2019-05-14T17:55:12.030Z,36.15
2019-05-14T17:57:45.785Z,36.12
2019-05-14T18:00:09.897Z,35.70
2019-05-14T18:02:38.270Z,36.40
2019-05-14T18:05:09.414Z,37.99
2019-05-14T18:07:37.349Z,36.53
2019-05-14T18:10:08.717Z,36.35
2019-05-14T18:12:39.650Z,36.44
2019-05-14T18:15:08.726Z,35.61
2019-05-14T18:17:39.298Z,35.87
2019-05-14T18:20:08.361Z,35.47
2019-05-14T18:22:42.163Z,36.31
2019-05-14T18:25:07.537Z,35.74
2019-05-14T18:27:38.760Z,35.75
2019-05-14T18:30:09.151Z,35.49
2019-05-14T18:32:37.856Z,37.00
2019-05-14T18:35:06.788Z,37.25
2019-05-14T18:37:35.208Z,37.57
2019-05-14T18:40:05.539Z,36.88
2019-05-14T18:42:33.936Z,36.87
2019-05-14T18:45:02.675Z,38.57
2019-05-14T18:47:31.077Z,38.57
2019-05-14T18:49:59.725Z,37.19
2019-05-14T18:52:29.601Z,37.96
2019-05-14T18:54:59.062Z,37.48
2019-05-14T18:57:28.732Z,37.27
2019-05-14T18:59:57.200Z,37.45
2019-05-14T19:02:26.249Z,36.82
2019-05-14T19:04:54.895Z,36.78
2019-05-14T19:07:23.314Z,37.27
2019-05-14T19:09:51.714Z,37.75
2019-05-14T19:12:20.176Z,37.73
2019-05-14T19:14:49.193Z,38.65
2019-05-14T19:17:18.674Z,38.11
2019-05-14T19:19:48.186Z,39.45
2019-05-14T19:22:16.848Z,39.60
2019-05-14T19:24:45.551Z,39.36
2019-05-14T19:27:13.942Z,39.10
2019-05-14T19:29:42.616Z,40.91
2019-05-14T19:32:11.014Z,41.49
2019-05-14T19:34:39.414Z,42.22
2019-05-14T19:37:08.356Z,43.80
2019-05-14T19:39:38.622Z,43.65
2019-05-14T19:42:08.610Z,46.15
2019-05-14T19:44:37.094Z,48.14
2019-05-14T19:47:05.493Z,48.19
2019-05-14T19:49:33.878Z,49.69
2019-05-14T19:52:02.626Z,49.23
2019-05-14T19:54:31.274Z,48.73
2019-05-14T19:57:00.921Z,49.80
2019-05-14T19:59:29.478Z,48.87
2019-05-14T20:01:58.943Z,49.49
2019-05-14T20:04:29.195Z,50.17
2019-05-14T20:06:57.952Z,50.56
2019-05-14T20:09:28.112Z,50.86
2019-05-14T20:11:58.138Z,51.47
2019-05-14T20:14:28.548Z,51.84
2019-05-14T20:16:58.317Z,53.15
2019-05-14T20:19:28.631Z,53.40
2019-05-14T20:21:58.803Z,54.18
2019-05-14T20:24:28.275Z,53.58
2019-05-14T20:27:05.778Z,53.73
2019-05-14T20:29:27.122Z,53.63
2019-05-14T20:31:55.517Z,54.31
2019-05-14T20:34:23.905Z,54.48
2019-05-14T20:36:52.329Z,54.63
2019-05-14T20:39:20.718Z,54.90
2019-05-14T20:41:49.221Z,54.96
2019-05-14T20:44:18.918Z,56.35
2019-05-14T20:46:48.963Z,56.82
2019-05-14T20:49:19.029Z,58.02
2019-05-14T20:51:49.380Z,58.44
2019-05-14T20:54:18.393Z,58.50
2019-05-14T20:56:49.030Z,58.14
2019-05-14T20:59:19.040Z,58.79
2019-05-14T21:01:47.190Z,58.29
2019-05-14T21:04:15.614Z,58.14
2019-05-14T21:06:44.042Z,58.01
2019-05-14T21:09:13.267Z,60.35
2019-05-14T21:11:41.803Z,58.86
2019-05-14T21:14:10.578Z,58.54
2019-05-14T21:16:39.464Z,59.14
2019-05-14T21:19:08.643Z,59.98
2019-05-14T21:21:38.378Z,59.88
2019-05-14T21:24:08.828Z,61.77
2019-05-14T21:26:39.836Z,61.23
2019-05-14T21:29:07.952Z,62.11
2019-05-14T21:31:38.593Z,61.07
2019-05-14T21:34:08.190Z,61.08
2019-05-14T21:36:38.942Z,60.86
2019-05-14T21:39:08.122Z,61.18
2019-05-14T21:41:38.662Z,61.36
2019-05-14T21:44:08.535Z,61.71
2019-05-14T21:46:39.719Z,61.70
2019-05-14T21:49:10.905Z,62.85
2019-05-14T21:51:39.191Z,63.19
2019-05-14T21:54:09.522Z,62.59
2019-05-14T21:56:38.642Z,63.63
2019-05-14T21:59:09.495Z,63.30
2019-05-14T22:01:39.256Z,63.58
2019-05-14T22:04:11.760Z,63.94
2019-05-14T22:06:41.417Z,64.32
2019-05-14T22:09:10.065Z,65.02
2019-05-14T22:11:39.262Z,66.99
2019-05-14T22:14:08.056Z,66.68
2019-05-14T22:16:38.062Z,65.48
2019-05-14T22:19:08.522Z,64.79
2019-05-14T22:21:38.705Z,65.05
2019-05-14T22:24:07.259Z,64.96
2019-05-14T22:26:35.746Z,65.30
2019-05-14T22:29:04.224Z,64.99
2019-05-14T22:31:32.677Z,65.68
2019-05-14T22:34:01.080Z,64.91
2019-05-14T22:36:29.560Z,65.31
2019-05-14T22:38:58.087Z,65.60
2019-05-14T22:41:28.925Z,65.94
2019-05-14T22:43:59.339Z,66.52
2019-05-14T22:46:26.793Z,66.69
2019-05-14T22:48:55.197Z,67.07
2019-05-14T22:51:23.879Z,66.99
2019-05-14T22:53:52.312Z,67.20
2019-05-14T22:56:20.733Z,66.83
2019-05-14T22:58:49.141Z,67.12
2019-05-14T23:01:18.410Z,66.39
2019-05-14T23:03:49.028Z,67.27
2019-05-14T23:06:18.822Z,67.14
2019-05-14T23:08:48.731Z,66.08
2019-05-14T23:11:19.517Z,67.11
2019-05-14T23:13:48.840Z,68.05
2019-05-14T23:16:30.991Z,67.80
2019-05-14T23:18:48.774Z,68.91
2019-05-14T23:21:17.324Z,69.08
2019-05-14T23:23:45.833Z,69.41
2019-05-14T23:26:14.251Z,69.21
2019-05-14T23:28:45.948Z,69.95
2019-05-14T23:31:12.844Z,69.30
2019-05-14T23:33:41.347Z,69.59
2019-05-14T23:36:10.132Z,67.26
2019-05-14T23:38:39.401Z,68.12
2019-05-14T23:41:08.708Z,68.61
2019-05-14T23:43:39.126Z,69.10
2019-05-14T23:46:09.302Z,69.06
2019-05-14T23:48:39.254Z,69.90
2019-05-14T23:51:08.338Z,69.89
2019-05-14T23:53:39.196Z,70.78
2019-05-14T23:56:08.623Z,70.85
2019-05-14T23:58:37.266Z,70.72
